Terminal Aerodrome Forecast
Issued by NWS

Home | Current Version | Previous Version | Text Only | Print | Product List | Glossary On
Versions: 1 2 3 4 5 6 7 8 9 10 11 12 13 14 15 16 17 18
000
FTUS43 KUNR 250500
TAFGCC
TAF
KGCC 250520Z 2506/2606 30015KT P6SM OVC040
     FM250800 30013KT 2SM -SN BR OVC012
     FM251200 33018G28KT 1SM -SN OVC007
     FM260000 36015KT 5SM -SN OVC015=

USA.gov is the U.S. government's official web portal to all federal, state and local government web resources and services.